Time;durP1;ratioP1;P1;durP2;ratioP2;P2;SDS_P1;SDS_P2;PMS_P1;PMS_P2;Temp;Humidity;BMP_temperature;BMP_pressure;BME280_temperature;BME280_humidity;BME280_pressure;Samples;Min_cycle;Max_cycle;Signal;HPM_P1;HPM_P2
2021/12/10 00:00:33;;;;;;;51.43;38.67;;;4.80;99.90;;;;;;5047748;28;20475;-76
2021/12/10 00:03:06;;;;;;;53.57;36.10;;;4.80;99.90;;;;;;5058029;28;20526;-75
2021/12/10 00:05:36;;;;;;;49.57;35.50;;;4.80;99.90;;;;;;5075570;28;20048;-75
2021/12/10 00:08:04;;;;;;;50.13;35.33;;;4.80;99.90;;;;;;5073333;28;20135;-75
2021/12/10 00:10:37;;;;;;;49.27;35.53;;;4.80;99.90;;;;;;5073093;28;20469;-75
2021/12/10 00:13:04;;;;;;;46.43;33.73;;;4.90;99.90;;;;;;5072698;28;20040;-75
2021/12/10 00:15:32;;;;;;;47.43;32.97;;;4.80;99.90;;;;;;5084866;28;20130;-75
2021/12/10 00:18:01;;;;;;;47.10;34.77;;;4.80;99.90;;;;;;5079469;28;20065;-75
2021/12/10 00:20:33;;;;;;;43.97;35.43;;;4.90;99.90;;;;;;5052609;28;20044;-76
2021/12/10 00:23:04;;;;;;;49.27;35.17;;;4.80;99.90;;;;;;5077566;28;20067;-75
2021/12/10 00:25:36;;;;;;;48.67;34.33;;;4.90;99.90;;;;;;5052790;28;20156;-75
2021/12/10 00:28:15;;;;;;;47.00;34.03;;;4.90;99.90;;;;;;5056484;28;20040;-76
2021/12/10 00:30:59;;;;;;;43.80;33.63;;;4.90;99.90;;;;;;5071973;28;20044;-76
2021/12/10 00:33:26;;;;;;;47.00;33.63;;;4.90;99.90;;;;;;5066773;28;20048;-76
2021/12/10 00:35:55;;;;;;;47.80;34.60;;;4.90;99.90;;;;;;5060068;28;20055;-75
2021/12/10 00:38:22;;;;;;;45.97;33.80;;;5.00;99.90;;;;;;5038558;28;20052;-75
2021/12/10 00:40:50;;;;;;;50.13;34.87;;;4.90;99.90;;;;;;5052923;28;20058;-75
2021/12/10 00:43:16;;;;;;;47.53;34.77;;;4.90;99.90;;;;;;5061547;28;20084;-75
2021/12/10 00:45:42;;;;;;;50.63;34.83;;;4.90;99.90;;;;;;5061018;28;20422;-75
2021/12/10 00:48:08;;;;;;;42.47;34.33;;;5.00;99.90;;;;;;5068547;28;20094;-75
2021/12/10 00:50:43;;;;;;;45.50;34.17;;;5.00;99.90;;;;;;5080064;28;20437;-75
2021/12/10 00:53:10;;;;;;;43.30;32.30;;;5.00;99.90;;;;;;5067520;28;20406;-76
2021/12/10 00:55:35;;;;;;;43.57;31.80;;;5.00;99.90;;;;;;5057832;28;20048;-75
2021/12/10 00:58:03;;;;;;;42.40;29.83;;;5.00;99.90;;;;;;5062660;28;20395;-75
2021/12/10 01:00:45;;;;;;;46.47;31.27;;;5.00;99.90;;;;;;5072486;28;20044;-75
2021/12/10 01:03:15;;;;;;;44.30;32.63;;;5.00;99.90;;;;;;5069294;28;20060;-75
2021/12/10 01:05:44;;;;;;;49.47;32.67;;;5.00;99.90;;;;;;5051238;28;20044;-75
2021/12/10 01:08:10;;;;;;;43.27;30.77;;;5.00;99.90;;;;;;5050058;28;20048;-75
2021/12/10 01:10:41;;;;;;;43.93;30.23;;;5.00;99.90;;;;;;5061739;28;20044;-75
2021/12/10 01:13:12;;;;;;;48.43;31.17;;;5.00;99.90;;;;;;5086521;28;20047;-75
2021/12/10 01:15:49;;;;;;;42.57;29.87;;;5.00;99.90;;;;;;5071049;28;20566;-75
2021/12/10 01:23:51;;;;;;;34.88;24.95;;;4.90;99.90;;;;;;5076913;28;20049;-75
2021/12/10 01:26:36;;;;;;;33.53;24.77;;;5.00;99.90;;;;;;5057939;28;20110;-75
2021/12/10 01:29:02;;;;;;;31.80;25.53;;;4.90;99.90;;;;;;5059503;28;20490;-75
2021/12/10 01:31:28;;;;;;;35.50;25.07;;;4.90;99.90;;;;;;5073907;28;20040;-76
2021/12/10 01:33:58;;;;;;;35.17;24.80;;;4.90;99.90;;;;;;5057861;28;20121;-75
2021/12/10 01:36:24;;;;;;;35.92;25.10;;;4.90;99.90;;;;;;5061767;28;20119;-75
2021/12/10 01:38:52;;;;;;;33.87;26.43;;;4.90;99.90;;;;;;5066958;28;20123;-75
2021/12/10 01:41:22;;;;;;;32.47;24.47;;;4.80;99.90;;;;;;5056261;28;20044;-75
2021/12/10 01:43:51;;;;;;;36.83;26.55;;;4.80;99.90;;;;;;5064270;28;20040;-75
2021/12/10 01:46:27;;;;;;;31.97;25.13;;;4.80;99.90;;;;;;5056858;28;20047;-75
2021/12/10 01:49:01;;;;;;;29.60;23.80;;;4.80;99.90;;;;;;5061623;28;20036;-75
2021/12/10 01:51:31;;;;;;;27.77;22.77;;;4.80;99.90;;;;;;5077570;28;20048;-75
2021/12/10 01:54:08;;;;;;;33.08;22.83;;;4.80;99.90;;;;;;5061698;28;20036;-75
2021/12/10 01:56:37;;;;;;;34.83;23.47;;;4.70;99.90;;;;;;5078741;28;20051;-75
2021/12/10 01:59:09;;;;;;;29.93;22.30;;;4.70;99.90;;;;;;5080939;28;20040;-75
2021/12/10 02:01:45;;;;;;;30.13;21.83;;;4.70;99.90;;;;;;5072383;28;20056;-75
2021/12/10 02:04:13;;;;;;;28.67;22.50;;;4.70;99.90;;;;;;5074251;28;20048;-75
2021/12/10 02:06:40;;;;;;;30.47;23.03;;;4.70;99.90;;;;;;5058619;28;20048;-75
2021/12/10 02:09:07;;;;;;;33.80;22.63;;;4.70;99.90;;;;;;5076905;28;20044;-75
2021/12/10 02:11:35;;;;;;;34.20;23.40;;;4.70;99.90;;;;;;5083382;28;20075;-75
2021/12/10 02:14:09;;;;;;;30.90;22.37;;;4.70;99.90;;;;;;5057381;28;20079;-75
2021/12/10 02:16:37;;;;;;;29.80;23.27;;;4.60;99.90;;;;;;5075727;28;20103;-76
2021/12/10 02:19:06;;;;;;;33.67;23.83;;;4.70;99.90;;;;;;5057281;28;20036;-75
2021/12/10 02:21:34;;;;;;;34.40;23.13;;;4.60;99.90;;;;;;5069436;28;20123;-75
2021/12/10 02:24:01;;;;;;;32.30;24.13;;;4.70;99.90;;;;;;5061491;28;20036;-75
2021/12/10 02:26:34;;;;;;;33.37;25.00;;;4.60;99.90;;;;;;5072121;28;20049;-75
2021/12/10 02:29:00;;;;;;;33.60;23.50;;;4.70;99.90;;;;;;5058021;28;20487;-75
2021/12/10 02:31:28;;;;;;;33.93;23.13;;;4.60;99.90;;;;;;5069033;28;20060;-75
2021/12/10 02:33:55;;;;;;;34.17;25.03;;;4.60;99.90;;;;;;5073367;28;20044;-76
2021/12/10 02:36:22;;;;;;;33.67;24.67;;;4.60;99.90;;;;;;5054982;28;20048;-75
2021/12/10 02:38:51;;;;;;;33.60;24.67;;;4.60;99.90;;;;;;5056916;28;20097;-76
2021/12/10 02:41:23;;;;;;;37.30;25.53;;;4.60;99.90;;;;;;5076021;28;20048;-76
2021/12/10 02:43:51;;;;;;;35.40;26.70;;;4.60;99.90;;;;;;5063022;28;20060;-76
2021/12/10 02:46:17;;;;;;;32.73;24.27;;;4.60;99.90;;;;;;5084509;28;20074;-75
2021/12/10 02:48:42;;;;;;;32.23;24.23;;;4.60;99.90;;;;;;5075774;28;20467;-76
2021/12/10 02:51:09;;;;;;;30.30;23.23;;;4.50;99.90;;;;;;5054157;28;20036;-76
2021/12/10 02:53:41;;;;;;;31.83;23.40;;;4.50;99.90;;;;;;5052672;28;20048;-76
2021/12/10 02:56:09;;;;;;;29.33;23.07;;;4.50;99.90;;;;;;5079799;28;20087;-76
2021/12/10 02:58:35;;;;;;;28.10;22.97;;;4.50;99.90;;;;;;5052623;28;20089;-76
2021/12/10 03:01:04;;;;;;;33.63;22.40;;;4.50;99.90;;;;;;5064095;28;20072;-75
2021/12/10 03:03:30;;;;;;;31.17;22.10;;;4.60;99.90;;;;;;5087495;28;20040;-76
2021/12/10 03:05:56;;;;;;;26.63;21.50;;;4.60;99.90;;;;;;5072289;28;20039;-76
2021/12/10 03:08:22;;;;;;;30.80;22.70;;;4.60;99.90;;;;;;5088794;28;20040;-76
2021/12/10 03:10:49;;;;;;;28.63;22.03;;;4.50;99.90;;;;;;5088109;28;20032;-76
2021/12/10 03:13:15;;;;;;;31.77;23.53;;;4.60;99.90;;;;;;5070769;28;20038;-75
2021/12/10 03:15:43;;;;;;;36.87;23.77;;;4.60;99.90;;;;;;5072303;28;20509;-75
2021/12/10 03:18:16;;;;;;;34.60;23.93;;;4.60;99.90;;;;;;5071896;28;20044;-76
2021/12/10 03:20:43;;;;;;;33.40;23.67;;;4.60;99.90;;;;;;5071447;28;20052;-75
2021/12/10 03:23:12;;;;;;;29.63;24.10;;;4.60;99.90;;;;;;5051880;28;20032;-76
2021/12/10 03:25:38;;;;;;;37.27;25.97;;;4.60;99.90;;;;;;5055166;28;20056;-76
2021/12/10 03:28:04;;;;;;;30.83;24.13;;;4.60;99.90;;;;;;5088251;28;20050;-76
2021/12/10 03:30:34;;;;;;;30.80;25.47;;;4.60;99.90;;;;;;5081075;28;20060;-76
2021/12/10 03:33:01;;;;;;;35.00;28.30;;;4.50;99.90;;;;;;5068910;28;20044;-76
2021/12/10 03:35:33;;;;;;;31.00;26.23;;;4.50;99.90;;;;;;5067014;28;20121;-76
2021/12/10 03:38:04;;;;;;;33.87;28.30;;;4.50;99.90;;;;;;5068683;28;20049;-76
2021/12/10 03:40:31;;;;;;;35.57;28.10;;;4.50;99.90;;;;;;5066669;28;20052;-75
2021/12/10 03:43:00;;;;;;;29.47;24.93;;;4.40;99.90;;;;;;5068228;28;20488;-75
2021/12/10 03:45:31;;;;;;;34.30;25.87;;;4.40;99.90;;;;;;5050405;28;20562;-76
2021/12/10 03:47:58;;;;;;;;;;;4.40;99.90;;;;;;5069166;28;20071;-76
2021/12/10 03:50:31;;;;;;;32.80;27.08;;;4.40;99.90;;;;;;5050152;28;19924;-76
2021/12/10 03:52:58;;;;;;;31.40;27.40;;;4.30;99.90;;;;;;5068281;28;20052;-76
2021/12/10 03:55:25;;;;;;;31.30;27.30;;;4.30;99.90;;;;;;5067408;28;20124;-77
2021/12/10 03:57:52;;;;;;;32.47;27.00;;;4.40;99.90;;;;;;5069425;28;20056;-77
2021/12/10 04:00:23;;;;;;;30.93;25.97;;;4.30;99.90;;;;;;5056337;28;20052;-78
2021/12/10 04:02:49;;;;;;;29.65;25.70;;;4.30;99.90;;;;;;5084703;28;20802;-77
2021/12/10 04:05:16;;;;;;;32.00;25.63;;;4.20;99.90;;;;;;5067244;28;20417;-78
2021/12/10 04:07:43;;;;;;;31.87;26.63;;;4.20;99.90;;;;;;5056100;28;20105;-78
2021/12/10 04:10:12;;;;;;;31.60;26.80;;;4.20;99.90;;;;;;5087440;28;20058;-78
2021/12/10 04:12:38;;;;;;;29.73;26.70;;;4.20;99.90;;;;;;5087870;28;20411;-77
2021/12/10 04:15:05;;;;;;;32.70;28.73;;;4.10;99.90;;;;;;5088178;28;20580;-77
2021/12/10 04:17:31;;;;;;;34.57;28.27;;;4.10;99.90;;;;;;5070706;28;20044;-78
2021/12/10 04:19:57;;;;;;;33.53;27.97;;;4.00;99.90;;;;;;5066539;28;20044;-78
2021/12/10 04:22:26;;;;;;;36.00;29.47;;;3.90;99.90;;;;;;5066062;28;20052;-78
2021/12/10 04:24:52;;;;;;;35.83;28.53;;;3.90;99.90;;;;;;5068013;28;20045;-78
2021/12/10 04:27:19;;;;;;;34.53;29.13;;;3.80;99.90;;;;;;5066042;28;20119;-78
2021/12/10 04:29:52;;;;;;;35.50;29.40;;;3.90;99.90;;;;;;5066136;28;20055;-78
2021/12/10 04:32:21;;;;;;;35.33;29.03;;;3.70;99.90;;;;;;5033519;28;20658;-77
2021/12/10 04:34:47;;;;;;;36.13;29.20;;;3.60;99.90;;;;;;5050061;28;20052;-78
2021/12/10 04:37:13;;;;;;;36.60;30.27;;;3.60;99.90;;;;;;5053251;28;20043;-77
2021/12/10 04:39:45;;;;;;;35.03;30.67;;;3.60;99.90;;;;;;5086650;28;20052;-78
2021/12/10 04:42:12;;;;;;;34.40;29.87;;;3.60;99.90;;;;;;5086092;28;20130;-78
2021/12/10 04:44:38;;;;;;;37.53;31.80;;;3.60;99.90;;;;;;5069254;28;20515;-78
2021/12/10 04:47:04;;;;;;;38.33;31.37;;;3.50;99.90;;;;;;5087824;28;20159;-78
2021/12/10 04:49:30;;;;;;;35.27;30.37;;;3.50;99.90;;;;;;5086918;28;20113;-78
2021/12/10 04:51:59;;;;;;;35.73;30.23;;;3.50;99.90;;;;;;5086433;28;20051;-78
2021/12/10 04:54:26;;;;;;;38.73;31.13;;;3.50;99.90;;;;;;5083077;28;20044;-79
2021/12/10 04:56:57;;;;;;;37.93;31.67;;;3.20;99.90;;;;;;5068523;28;20119;-79
2021/12/10 04:59:25;;;;;;;35.77;30.33;;;3.40;99.90;;;;;;5066442;28;20057;-78
2021/12/10 05:01:54;;;;;;;38.47;31.10;;;3.30;99.90;;;;;;5064982;28;20075;-78
2021/12/10 05:04:20;;;;;;;35.67;30.20;;;3.30;99.90;;;;;;5087887;28;20066;-78
2021/12/10 05:06:46;;;;;;;37.53;32.87;;;3.30;99.90;;;;;;5086541;28;20521;-78
2021/12/10 05:09:14;;;;;;;39.47;33.13;;;3.30;99.90;;;;;;5066918;28;20052;-78
2021/12/10 05:11:40;;;;;;;37.33;33.17;;;3.30;99.90;;;;;;5067931;28;20101;-78
2021/12/10 05:14:06;;;;;;;39.07;33.50;;;3.30;99.90;;;;;;5050275;28;20056;-78
2021/12/10 05:16:37;;;;;;;41.97;34.10;;;3.30;99.90;;;;;;5049526;28;20055;-77
2021/12/10 05:19:05;;;;;;;37.50;33.00;;;3.20;99.90;;;;;;5049842;28;20063;-77
2021/12/10 05:21:33;;;;;;;41.97;35.10;;;3.20;99.90;;;;;;5048655;28;20051;-75
2021/12/10 05:24:00;;;;;;;42.27;35.33;;;3.20;99.90;;;;;;5049744;28;20048;-76
2021/12/10 05:26:26;;;;;;;40.17;34.90;;;3.20;99.90;;;;;;5048443;28;20690;-76
2021/12/10 05:28:52;;;;;;;42.10;35.50;;;3.20;99.90;;;;;;5066078;28;20040;-76
2021/12/10 05:31:18;;;;;;;39.07;34.90;;;3.20;99.90;;;;;;5058523;28;20204;-76
2021/12/10 05:33:44;;;;;;;41.47;34.37;;;3.20;99.90;;;;;;5038881;28;20051;-76
2021/12/10 05:36:10;;;;;;;40.27;35.83;;;3.20;99.90;;;;;;5069073;28;20129;-76
2021/12/10 05:38:36;;;;;;;43.53;36.07;;;3.20;99.90;;;;;;5086300;28;20055;-76
2021/12/10 05:41:05;;;;;;;40.00;35.23;;;3.20;99.90;;;;;;5069291;28;20055;-76
2021/12/10 05:43:33;;;;;;;42.57;35.87;;;3.20;99.90;;;;;;5068132;28;20511;-76
2021/12/10 05:45:59;;;;;;;39.30;34.50;;;3.10;99.90;;;;;;5086409;28;20145;-76
2021/12/10 05:48:26;;;;;;;38.77;34.50;;;3.10;99.90;;;;;;5047876;28;20090;-77
2021/12/10 05:50:52;;;;;;;37.77;33.43;;;3.10;99.90;;;;;;5070464;28;20040;-77
2021/12/10 05:53:18;;;;;;;36.97;33.07;;;3.10;99.90;;;;;;5086204;28;20048;-79
2021/12/10 05:55:44;;;;;;;37.77;33.67;;;3.00;99.90;;;;;;5085967;28;20044;-77
2021/12/10 05:58:12;;;;;;;35.87;31.77;;;3.00;99.90;;;;;;5071901;28;20047;-76
2021/12/10 06:00:50;;;;;;;34.03;30.33;;;2.90;99.90;;;;;;5062382;28;20048;-78
2021/12/10 06:03:17;;;;;;;35.43;31.33;;;2.90;99.90;;;;;;5051767;28;20045;-78
2021/12/10 06:05:44;;;;;;;35.50;31.80;;;2.80;99.90;;;;;;5068927;28;20079;-79
2021/12/10 06:08:11;;;;;;;37.43;31.40;;;2.80;99.90;;;;;;5080130;28;20044;-78
2021/12/10 06:10:38;;;;;;;33.60;29.87;;;2.80;99.90;;;;;;5089510;28;20059;-77
2021/12/10 06:13:04;;;;;;;35.90;30.50;;;2.80;99.90;;;;;;5072650;28;20105;-77
2021/12/10 06:15:31;;;;;;;33.00;29.53;;;2.80;99.90;;;;;;5071848;28;20091;-77
2021/12/10 06:17:57;;;;;;;33.47;29.53;;;2.70;99.90;;;;;;5072870;28;20495;-77
2021/12/10 06:20:33;;;;;;;34.00;28.53;;;2.70;99.90;;;;;;5081647;28;20525;-77
2021/12/10 06:23:00;;;;;;;32.23;28.83;;;2.80;99.90;;;;;;5068930;28;20078;-78
2021/12/10 06:25:27;;;;;;;31.37;27.97;;;2.70;99.90;;;;;;5068415;28;20056;-78
2021/12/10 06:27:53;;;;;;;31.83;28.40;;;2.60;99.90;;;;;;5052044;28;20056;-81
2021/12/10 06:30:23;;;;;;;30.07;26.77;;;2.60;99.90;;;;;;5054496;28;20045;-77
2021/12/10 06:32:52;;;;;;;29.90;26.83;;;2.50;99.90;;;;;;5069746;28;20558;-76
2021/12/10 06:35:18;;;;;;;30.13;26.90;;;2.60;99.90;;;;;;5071384;28;20569;-76
2021/12/10 06:37:44;;;;;;;33.43;27.90;;;2.60;99.90;;;;;;5071827;28;20050;-77
2021/12/10 06:40:13;;;;;;;30.10;26.90;;;2.60;99.90;;;;;;5090006;28;20155;-75
2021/12/10 06:42:39;;;;;;;29.60;26.53;;;2.50;99.90;;;;;;5088707;28;20135;-75
2021/12/10 06:45:08;;;;;;;29.50;26.30;;;2.60;99.90;;;;;;5072869;28;20123;-75
2021/12/10 06:47:34;;;;;;;28.20;25.10;;;2.40;99.90;;;;;;5061349;28;20044;-73
2021/12/10 06:50:01;;;;;;;28.83;25.83;;;2.40;99.90;;;;;;5050603;28;20547;-73
2021/12/10 06:52:27;;;;;;;28.27;25.27;;;2.40;99.90;;;;;;5047866;28;20098;-73
2021/12/10 06:54:52;;;;;;;27.87;24.73;;;2.40;99.90;;;;;;5063481;28;20433;-73
2021/12/10 06:57:18;;;;;;;28.87;24.77;;;2.40;99.90;;;;;;5054109;28;20333;-73
2021/12/10 06:59:44;;;;;;;27.73;24.40;;;2.30;99.90;;;;;;5083203;28;20105;-73
2021/12/10 07:02:14;;;;;;;29.37;25.87;;;2.30;99.90;;;;;;5066751;28;20041;-73
2021/12/10 07:04:41;;;;;;;27.63;24.67;;;2.20;99.90;;;;;;5065313;28;20044;-73
2021/12/10 07:07:16;;;;;;;28.87;24.83;;;2.30;99.90;;;;;;5052062;28;20495;-73
2021/12/10 07:09:42;;;;;;;27.03;24.10;;;2.20;99.90;;;;;;5059389;28;20055;-73
2021/12/10 07:12:08;;;;;;;28.53;24.53;;;2.20;99.90;;;;;;5067378;28;20093;-73
2021/12/10 07:14:34;;;;;;;26.87;23.97;;;2.20;99.90;;;;;;5085206;28;20043;-72
2021/12/10 07:17:00;;;;;;;28.53;23.27;;;2.20;99.90;;;;;;5035987;28;20072;-73
2021/12/10 07:19:28;;;;;;;25.93;23.17;;;2.20;99.90;;;;;;5061174;28;20249;-73
2021/12/10 07:21:53;;;;;;;25.17;22.23;;;2.10;99.90;;;;;;5066107;28;20051;-73
2021/12/10 07:24:20;;;;;;;26.10;23.33;;;2.20;99.90;;;;;;5051777;28;20040;-73
2021/12/10 07:26:47;;;;;;;28.57;23.70;;;2.20;99.90;;;;;;5048342;28;20040;-73
2021/12/10 07:29:14;;;;;;;24.83;22.20;;;2.10;99.90;;;;;;5082996;28;20122;-76
2021/12/10 07:31:43;;;;;;;24.83;21.77;;;2.10;99.90;;;;;;5051927;28;20047;-75
2021/12/10 07:34:10;;;;;;;25.00;22.17;;;2.10;99.90;;;;;;5066134;28;20514;-74
2021/12/10 07:36:37;;;;;;;26.50;22.30;;;2.00;99.90;;;;;;5058433;28;20046;-75
2021/12/10 07:39:06;;;;;;;25.00;20.93;;;2.10;99.90;;;;;;5052696;28;20434;-76
2021/12/10 07:41:33;;;;;;;23.97;20.13;;;2.00;99.90;;;;;;5055187;28;20086;-75
2021/12/10 07:44:03;;;;;;;23.63;20.67;;;2.00;99.90;;;;;;5056097;28;20036;-76
2021/12/10 07:46:32;;;;;;;24.13;20.57;;;2.00;99.90;;;;;;5080224;28;20056;-77
2021/12/10 07:48:58;;;;;;;23.20;20.73;;;2.00;99.90;;;;;;5058944;28;20037;-76
2021/12/10 07:51:27;;;;;;;22.83;19.20;;;2.00;99.90;;;;;;5048552;28;20577;-77
2021/12/10 07:53:57;;;;;;;21.23;18.20;;;2.00;99.90;;;;;;5060512;28;20129;-77
2021/12/10 07:56:31;;;;;;;21.17;18.42;;;2.00;99.90;;;;;;5052391;28;20659;-77
2021/12/10 07:58:59;;;;;;;24.97;18.27;;;2.10;99.90;;;;;;5071219;28;20051;-76
2021/12/10 08:01:27;;;;;;;21.17;18.10;;;2.10;99.90;;;;;;5056496;28;20077;-78
2021/12/10 08:03:55;;;;;;;20.57;18.30;;;2.10;99.90;;;;;;5048256;28;20041;-77
2021/12/10 08:06:22;;;;;;;23.50;17.97;;;2.20;99.90;;;;;;5047856;28;20424;-76
2021/12/10 08:08:48;;;;;;;22.27;17.47;;;2.10;99.90;;;;;;5055851;28;20044;-78
2021/12/10 08:11:18;;;;;;;20.43;16.63;;;2.10;99.90;;;;;;5039270;28;20502;-77
2021/12/10 08:13:44;;;;;;;24.13;18.00;;;2.20;99.90;;;;;;5063773;28;20043;-78
2021/12/10 08:16:11;;;;;;;20.73;16.87;;;2.20;99.90;;;;;;5023784;28;20119;-77
2021/12/10 08:18:37;;;;;;;18.70;16.33;;;2.10;99.90;;;;;;5050508;28;20051;-79
2021/12/10 08:21:07;;;;;;;19.00;16.30;;;2.20;99.90;;;;;;5053288;28;20040;-78
2021/12/10 08:23:36;;;;;;;20.35;16.55;;;2.20;99.90;;;;;;5037915;28;20109;-78
2021/12/10 08:26:03;;;;;;;20.60;17.53;;;2.30;99.90;;;;;;5049157;28;20123;-72
2021/12/10 08:28:33;;;;;;;20.50;16.60;;;2.30;99.90;;;;;;5040516;28;20036;-72
2021/12/10 08:31:00;;;;;;;19.70;16.05;;;2.40;99.90;;;;;;5050811;28;20036;-72
2021/12/10 08:33:26;;;;;;;21.10;17.20;;;2.40;99.90;;;;;;5048801;28;20075;-72
2021/12/10 08:36:02;;;;;;;18.80;16.60;;;2.50;99.90;;;;;;5051564;28;20087;-72
2021/12/10 08:38:32;;;;;;;21.00;16.67;;;2.30;99.90;;;;;;5067468;28;20049;-77
2021/12/10 08:41:03;;;;;;;19.27;16.30;;;2.40;99.90;;;;;;5046399;28;20044;-77
2021/12/10 08:43:30;;;;;;;20.30;16.57;;;2.40;99.90;;;;;;5056610;28;20433;-78
2021/12/10 08:45:57;;;;;;;18.27;16.33;;;2.50;99.90;;;;;;5054462;28;20071;-78
2021/12/10 08:48:27;;;;;;;20.37;16.70;;;2.40;99.90;;;;;;5050648;28;20040;-77
2021/12/10 08:50:54;;;;;;;20.05;16.10;;;2.50;99.90;;;;;;5066236;28;20062;-76
2021/12/10 08:53:20;;;;;;;20.23;16.83;;;2.50;99.90;;;;;;5069862;28;20386;-77
2021/12/10 08:55:53;;;;;;;21.53;17.33;;;2.60;99.90;;;;;;5061898;28;20052;-77
2021/12/10 08:58:20;;;;;;;18.37;15.63;;;2.50;99.90;;;;;;5074742;28;20053;-77
2021/12/10 09:00:52;;;;;;;18.43;15.57;;;2.50;99.90;;;;;;5057517;28;20398;-78
2021/12/10 09:03:18;;;;;;;17.73;15.57;;;2.60;99.90;;;;;;5064410;28;20047;-77
2021/12/10 09:05:44;;;;;;;17.20;15.17;;;2.60;99.90;;;;;;5068239;28;20131;-78
2021/12/10 09:08:15;;;;;;;17.80;15.40;;;2.60;99.90;;;;;;5048402;28;20166;-71
2021/12/10 09:10:44;;;;;;;18.10;14.53;;;2.70;99.90;;;;;;5076671;28;20045;-71
2021/12/10 09:13:14;;;;;;;18.47;14.77;;;2.80;99.90;;;;;;5060426;28;20128;-71
2021/12/10 09:15:45;;;;;;;16.75;14.55;;;2.80;99.90;;;;;;5049440;28;20518;-71
2021/12/10 09:18:11;;;;;;;16.53;14.57;;;2.80;99.90;;;;;;5063575;28;20048;-71
2021/12/10 09:20:40;;;;;;;19.00;14.80;;;2.90;99.90;;;;;;5049116;28;20059;-71
2021/12/10 09:23:09;;;;;;;15.90;13.83;;;2.90;99.90;;;;;;5077233;28;20048;-72
2021/12/10 09:25:36;;;;;;;19.60;14.40;;;2.90;99.90;;;;;;5058452;28;20497;-72
2021/12/10 09:28:03;;;;;;;18.27;14.33;;;2.90;99.90;;;;;;5038579;28;20050;-71
2021/12/10 09:30:34;;;;;;;15.20;12.73;;;3.00;99.90;;;;;;5069387;28;20037;-71
2021/12/10 09:33:00;;;;;;;16.10;12.53;;;3.00;99.90;;;;;;5074303;28;20062;-71
2021/12/10 09:35:29;;;;;;;15.10;12.77;;;3.00;99.90;;;;;;5050668;28;20051;-71
2021/12/10 09:37:55;;;;;;;13.10;11.80;;;3.10;99.90;;;;;;5080128;28;20047;-71
2021/12/10 09:40:27;;;;;;;13.87;11.93;;;3.20;99.90;;;;;;5066550;28;20137;-71
2021/12/10 09:42:53;;;;;;;15.13;11.83;;;3.20;99.90;;;;;;5071666;28;20056;-71
2021/12/10 09:45:22;;;;;;;13.33;11.73;;;3.20;99.90;;;;;;5070319;28;20044;-71
2021/12/10 09:47:48;;;;;;;14.80;11.87;;;3.30;99.90;;;;;;5079605;28;20568;-71
2021/12/10 09:50:15;;;;;;;14.30;11.73;;;3.40;99.90;;;;;;5063889;28;20047;-72
2021/12/10 09:52:42;;;;;;;14.63;11.27;;;3.50;99.90;;;;;;5053539;28;20119;-71
2021/12/10 09:55:12;;;;;;;13.10;10.30;;;3.50;99.90;;;;;;5035159;28;20047;-70
2021/12/10 09:57:38;;;;;;;13.70;11.10;;;3.50;99.90;;;;;;5081678;28;20050;-71
2021/12/10 10:00:11;;;;;;;15.03;10.47;;;3.50;99.90;;;;;;5063432;28;20133;-71
2021/12/10 10:02:38;;;;;;;11.60;10.17;;;3.60;99.90;;;;;;5070060;28;20040;-71
2021/12/10 10:05:05;;;;;;;13.70;10.53;;;3.70;99.90;;;;;;5080811;28;20133;-71
2021/12/10 10:07:32;;;;;;;14.33;10.30;;;3.70;99.90;;;;;;5058346;28;20050;-71
2021/12/10 10:10:16;;;;;;;12.87;10.47;;;3.80;99.90;;;;;;5068104;28;20044;-72
2021/12/10 10:12:46;;;;;;;13.13;10.03;;;3.80;99.90;;;;;;5073193;28;20044;-73
2021/12/10 10:15:26;;;;;;;10.55;9.45;;;3.90;99.90;;;;;;5077654;28;20127;-77
2021/12/10 10:17:53;;;;;;;14.63;10.00;;;3.90;99.90;;;;;;5069942;28;20055;-73
2021/12/10 10:20:21;;;;;;;11.03;9.63;;;3.90;99.90;;;;;;5043576;28;20071;-73
2021/12/10 10:22:47;;;;;;;12.63;9.40;;;3.90;99.90;;;;;;5050750;28;20555;-74
2021/12/10 10:25:17;;;;;;;12.63;9.47;;;4.00;99.90;;;;;;5060819;28;20040;-73
2021/12/10 10:27:44;;;;;;;11.40;10.20;;;4.00;99.90;;;;;;5061555;28;20083;-73
2021/12/10 10:30:25;;;;;;;12.33;9.43;;;4.10;99.90;;;;;;5055308;28;20094;-71
2021/12/10 10:32:53;;;;;;;13.67;9.20;;;4.10;99.90;;;;;;5067638;28;20053;-71
2021/12/10 10:35:24;;;;;;;11.60;9.50;;;4.10;99.90;;;;;;5080300;28;20051;-71
2021/12/10 10:37:50;;;;;;;;;;;4.10;99.90;;;;;;5051860;28;20052;-71
2021/12/10 10:40:23;;;;;;;12.07;9.20;;;4.20;99.90;;;;;;5059571;28;20023;-71
2021/12/10 10:42:50;;;;;;;10.70;8.43;;;4.20;99.90;;;;;;5072913;28;20044;-71
2021/12/10 10:45:23;;;;;;;11.27;8.40;;;4.20;99.90;;;;;;5054603;28;20044;-76
2021/12/10 10:47:49;;;;;;;12.83;9.30;;;4.20;99.90;;;;;;5060933;28;20078;-77
2021/12/10 10:50:23;;;;;;;14.27;9.30;;;4.30;99.90;;;;;;5066141;28;20059;-76
2021/12/10 10:52:59;;;;;;;13.53;8.73;;;4.30;99.90;;;;;;5058128;28;20040;-72
2021/12/10 10:55:38;;;;;;;11.37;8.50;;;4.40;99.90;;;;;;5054583;28;20123;-77
2021/12/10 10:58:11;;;;;;;10.23;7.73;;;4.40;99.90;;;;;;5069306;28;20135;-79
2021/12/10 11:00:51;;;;;;;12.03;8.43;;;4.40;99.90;;;;;;5065793;28;20051;-77
2021/12/10 11:03:22;;;;;;;12.40;9.00;;;4.40;99.90;;;;;;5070843;28;20107;-76
2021/12/10 11:05:51;;;;;;;11.88;8.73;;;4.50;99.90;;;;;;5058438;28;20044;-78
2021/12/10 11:08:26;;;;;;;12.83;8.13;;;4.50;99.90;;;;;;5083239;28;20097;-78
2021/12/10 11:10:52;;;;;;;9.77;7.77;;;4.50;99.90;;;;;;5061184;28;20051;-78
2021/12/10 11:13:23;;;;;;;10.40;7.53;;;4.60;99.90;;;;;;5079547;28;20044;-77
2021/12/10 11:15:54;;;;;;;10.43;7.43;;;4.60;99.90;;;;;;5068844;28;20052;-77
2021/12/10 11:18:20;;;;;;;10.83;7.53;;;4.60;99.90;;;;;;5054019;28;20507;-76
2021/12/10 11:20:46;;;;;;;10.27;6.53;;;4.60;99.90;;;;;;5055109;28;20082;-77
2021/12/10 11:23:13;;;;;;;10.53;6.73;;;4.60;99.90;;;;;;5040713;28;20042;-78
2021/12/10 11:25:43;;;;;;;11.30;7.03;;;4.60;99.90;;;;;;5056041;28;20036;-77
2021/12/10 11:28:17;;;;;;;10.82;6.25;;;4.70;99.90;;;;;;5072809;28;20080;-77
2021/12/10 11:30:52;;;;;;;12.13;6.13;;;4.70;99.90;;;;;;5052873;28;20137;-78
2021/12/10 11:33:22;;;;;;;9.10;7.37;;;4.70;99.90;;;;;;5059318;28;20048;-78
2021/12/10 11:35:59;;;;;;;9.88;6.28;;;4.70;99.90;;;;;;5074980;28;20045;-78
2021/12/10 11:38:29;;;;;;;10.10;6.43;;;4.80;99.90;;;;;;5067236;28;20079;-78
2021/12/10 11:40:57;;;;;;;;;;;4.80;99.90;;;;;;5057239;28;20046;-78
2021/12/10 11:43:44;;;;;;;8.97;5.67;;;4.80;99.90;;;;;;5057763;28;19995;-79
2021/12/10 11:46:44;;;;;;;10.23;5.80;;;4.90;99.90;;;;;;5064252;28;20049;-77
2021/12/10 11:49:12;;;;;;;10.10;5.90;;;4.90;99.90;;;;;;5067352;28;20523;-78
2021/12/10 11:51:41;;;;;;;9.53;5.73;;;4.90;99.90;;;;;;5049545;28;20143;-77
2021/12/10 11:54:22;;;;;;;11.57;5.40;;;4.90;99.90;;;;;;5049187;28;20498;-78
2021/12/10 11:56:54;;;;;;;7.80;5.27;;;4.90;99.90;;;;;;5066476;28;20566;-79
2021/12/10 11:59:37;;;;;;;7.37;5.27;;;5.00;99.90;;;;;;5053914;28;20047;-80
2021/12/10 12:02:13;;;;;;;9.57;5.50;;;5.00;99.90;;;;;;5050353;28;20064;-72
2021/12/10 12:04:55;;;;;;;8.37;5.43;;;5.00;99.90;;;;;;5061414;28;20076;-72
2021/12/10 12:07:40;;;;;;;12.10;5.60;;;5.00;99.90;;;;;;5072051;28;20053;-71
2021/12/10 12:10:32;;;;;;;8.50;5.00;;;5.00;99.90;;;;;;5064075;28;20147;-72
2021/12/10 12:13:20;;;;;;;9.67;4.97;;;5.10;99.90;;;;;;5056519;28;20039;-73
2021/12/10 12:15:54;;;;;;;7.53;4.77;;;5.10;99.90;;;;;;5070221;28;20046;-72
2021/12/10 12:18:42;;;;;;;8.93;5.60;;;5.00;99.90;;;;;;5064509;28;20438;-72
2021/12/10 12:27:18;;;;;;;11.37;4.77;;;5.00;99.90;;;;;;5076884;28;20437;-72
2021/12/10 12:29:53;;;;;;;10.03;4.70;;;4.90;99.90;;;;;;5076211;28;20398;-72
2021/12/10 12:32:21;;;;;;;7.73;4.53;;;5.00;99.90;;;;;;5062314;28;20694;-73
2021/12/10 12:34:48;;;;;;;10.60;3.80;;;5.00;99.90;;;;;;5068704;28;20111;-72
2021/12/10 12:37:20;;;;;;;8.97;4.40;;;5.00;99.90;;;;;;5047972;28;20040;-72
2021/12/10 12:39:59;;;;;;;9.00;4.33;;;5.00;99.90;;;;;;5064269;28;20494;-72
2021/12/10 12:42:26;;;;;;;7.60;3.90;;;5.00;99.90;;;;;;5048840;28;20518;-72
2021/12/10 12:45:06;;;;;;;7.53;4.10;;;5.00;99.90;;;;;;5062757;28;20144;-72
2021/12/10 12:47:40;;;;;;;8.98;4.28;;;5.00;99.90;;;;;;5048572;28;20511;-72
2021/12/10 12:50:18;;;;;;;9.90;4.13;;;5.00;99.90;;;;;;5068602;28;20507;-72
2021/12/10 12:52:55;;;;;;;7.63;4.20;;;4.90;99.90;;;;;;5055289;28;20778;-72
2021/12/10 12:55:30;;;;;;;8.60;3.87;;;5.00;99.90;;;;;;5065094;28;20056;-72
2021/12/10 12:58:05;;;;;;;10.03;4.23;;;4.90;99.90;;;;;;5069483;28;20491;-72
2021/12/10 13:00:37;;;;;;;8.53;4.80;;;4.90;99.90;;;;;;5048315;28;20415;-72
2021/12/10 13:03:15;;;;;;;8.13;4.20;;;4.90;99.90;;;;;;5067977;28;20070;-71